Time;durP1;ratioP1;P1;durP2;ratioP2;P2;SDS_P1;SDS_P2;PMS_P1;PMS_P2;Temp;Humidity;BMP_temperature;BMP_pressure;BME280_temperature;BME280_humidity;BME280_pressure;Samples;Min_cycle;Max_cycle;Signal;HPM_P1;HPM_P2
2022/03/22 00:01:58;;;;;;;22.10;16.97;;;6.40;70.00;;;;;;6159667;23;20418;-88
2022/03/22 00:04:27;;;;;;;24.77;16.03;;;6.40;69.90;;;;;;6158592;23;20395;-88
2022/03/22 00:06:53;;;;;;;22.77;17.67;;;6.20;70.50;;;;;;6162754;23;20434;-88
2022/03/22 00:09:21;;;;;;;23.00;17.60;;;6.20;71.20;;;;;;6182486;23;20399;-88
2022/03/22 00:11:50;;;;;;;20.97;17.70;;;6.20;71.80;;;;;;6185246;23;20387;-90
2022/03/22 00:14:16;;;;;;;21.10;17.77;;;6.20;71.90;;;;;;6176195;23;20393;-88
2022/03/22 00:16:43;;;;;;;21.43;16.43;;;6.20;72.00;;;;;;6179700;23;20458;-88
2022/03/22 00:19:10;;;;;;;22.33;17.10;;;6.30;72.10;;;;;;6178523;23;20731;-89
2022/03/22 00:21:38;;;;;;;21.70;16.90;;;6.30;71.80;;;;;;6179812;23;20394;-91
2022/03/22 00:24:05;;;;;;;20.80;17.37;;;6.30;71.60;;;;;;6163677;23;20414;-89
2022/03/22 00:26:32;;;;;;;18.97;16.23;;;6.30;71.70;;;;;;6155337;23;20823;-88
2022/03/22 00:29:00;;;;;;;22.20;17.63;;;6.30;71.70;;;;;;6156372;23;20414;-89
2022/03/22 00:31:27;;;;;;;24.13;18.43;;;6.30;71.80;;;;;;6155830;23;20926;-88
2022/03/22 00:33:53;;;;;;;23.47;17.40;;;6.30;72.10;;;;;;6155605;23;20406;-88
2022/03/22 00:36:20;;;;;;;23.70;17.60;;;6.30;72.10;;;;;;6160524;23;20430;-88
2022/03/22 00:38:48;;;;;;;19.97;16.40;;;6.20;72.00;;;;;;6159391;23;20410;-88
2022/03/22 00:41:16;;;;;;;19.20;17.13;;;6.20;72.40;;;;;;6156316;23;20411;-88
2022/03/22 00:43:43;;;;;;;19.77;17.57;;;6.20;72.70;;;;;;6160283;23;20473;-88
2022/03/22 00:46:10;;;;;;;20.73;18.23;;;6.10;72.70;;;;;;6157047;23;20446;-88
2022/03/22 00:48:37;;;;;;;25.17;18.30;;;6.10;73.00;;;;;;6176323;23;20411;-88
2022/03/22 00:51:04;;;;;;;24.20;18.07;;;6.10;73.70;;;;;;6175556;23;20413;-90
2022/03/22 00:53:32;;;;;;;22.67;18.33;;;6.10;73.90;;;;;;6157273;23;20410;-87
2022/03/22 00:56:01;;;;;;;30.10;19.30;;;5.90;73.70;;;;;;6155748;23;20415;-87
2022/03/22 00:58:28;;;;;;;25.73;18.67;;;5.90;74.20;;;;;;6155359;23;20414;-89
2022/03/22 01:00:55;;;;;;;26.23;17.50;;;5.90;74.40;;;;;;6156022;23;20418;-87
2022/03/22 01:03:21;;;;;;;23.93;17.70;;;5.80;74.20;;;;;;6155453;23;20415;-87
2022/03/22 01:05:50;;;;;;;24.17;18.90;;;5.70;74.10;;;;;;6156454;23;20445;-89
2022/03/22 01:08:17;;;;;;;21.60;18.00;;;5.60;74.30;;;;;;6155714;23;20410;-90
2022/03/22 01:10:51;;;;;;;25.40;17.93;;;5.60;74.50;;;;;;6155679;23;20409;-90
2022/03/22 01:13:21;;;;;;;22.03;17.87;;;5.60;74.70;;;;;;6156046;23;20393;-88
2022/03/22 01:15:49;;;;;;;27.23;19.00;;;5.50;73.90;;;;;;6155035;23;20449;-88
2022/03/22 01:18:16;;;;;;;21.47;18.50;;;5.40;73.20;;;;;;6159594;23;20417;-88
2022/03/22 01:20:46;;;;;;;22.90;18.73;;;5.40;74.00;;;;;;6154659;23;20411;-89
2022/03/22 01:23:13;;;;;;;30.80;19.43;;;5.40;73.50;;;;;;6156612;23;20409;-89
2022/03/22 01:25:41;;;;;;;27.10;18.87;;;5.30;73.30;;;;;;6170711;23;20442;-88
2022/03/22 01:28:10;;;;;;;23.50;19.30;;;5.30;73.40;;;;;;6159474;23;20414;-88
2022/03/22 01:30:38;;;;;;;31.40;20.37;;;5.30;72.90;;;;;;6158626;23;20417;-88
2022/03/22 01:33:06;;;;;;;24.40;19.70;;;5.30;72.50;;;;;;6156516;23;20428;-89
2022/03/22 01:35:33;;;;;;;24.70;18.90;;;5.30;72.70;;;;;;6171369;23;20428;-87
2022/03/22 01:38:00;;;;;;;30.67;19.40;;;5.20;72.50;;;;;;6156211;23;20862;-87
2022/03/22 01:40:29;;;;;;;25.43;19.03;;;5.20;73.00;;;;;;6155569;23;20510;-88
2022/03/22 01:42:55;;;;;;;28.77;21.43;;;5.20;73.30;;;;;;6154632;23;20909;-88
2022/03/22 01:45:22;;;;;;;27.57;20.73;;;5.10;73.50;;;;;;6155880;23;20449;-88
2022/03/22 01:47:52;;;;;;;21.90;19.50;;;5.20;73.80;;;;;;6172140;23;20426;-88
2022/03/22 01:50:20;;;;;;;28.43;21.03;;;5.10;73.90;;;;;;6178742;23;20436;-89
2022/03/22 01:52:47;;;;;;;26.97;19.10;;;5.00;74.20;;;;;;6158390;23;20414;-87
2022/03/22 01:55:17;;;;;;;29.80;21.07;;;5.10;74.50;;;;;;6155178;23;20469;-87
2022/03/22 01:57:44;;;;;;;36.03;20.60;;;5.10;74.20;;;;;;6156265;23;20426;-86
2022/03/22 02:00:13;;;;;;;27.40;23.00;;;5.10;74.50;;;;;;6157940;23;20410;-87
2022/03/22 02:08:31;;;;;;;27.47;21.23;;;5.00;75.50;;;;;;6144840;23;20435;-87
2022/03/22 02:11:00;;;;;;;29.97;21.83;;;5.00;75.40;;;;;;6155288;23;20416;-88
2022/03/22 02:13:27;;;;;;;26.60;21.90;;;4.90;75.40;;;;;;6155739;23;20441;-87
2022/03/22 02:15:57;;;;;;;29.70;22.97;;;4.90;75.90;;;;;;6155255;23;20432;-87
2022/03/22 02:18:25;;;;;;;27.30;22.63;;;4.90;76.10;;;;;;6155455;23;20409;-88
2022/03/22 02:20:53;;;;;;;27.07;21.00;;;5.00;76.00;;;;;;6163947;23;20408;-86
2022/03/22 02:23:21;;;;;;;26.00;20.83;;;5.00;75.30;;;;;;6173235;23;20439;-87
2022/03/22 02:25:50;;;;;;;23.20;19.80;;;5.00;74.70;;;;;;6185089;23;20436;-88
2022/03/22 02:28:20;;;;;;;30.23;23.70;;;5.00;75.10;;;;;;6186643;23;20405;-87
2022/03/22 02:30:48;;;;;;;22.57;19.40;;;4.90;75.40;;;;;;6205016;23;20386;-88
2022/03/22 02:33:15;;;;;;;25.97;20.80;;;4.80;75.70;;;;;;6207072;23;20412;-88
2022/03/22 02:35:41;;;;;;;29.27;22.30;;;4.80;76.10;;;;;;6198369;23;20392;-88
2022/03/22 02:38:09;;;;;;;30.53;21.77;;;4.80;76.50;;;;;;6197039;23;20400;-88
2022/03/22 02:40:36;;;;;;;35.22;22.92;;;4.80;76.60;;;;;;6187664;23;20407;-88
2022/03/22 02:43:05;;;;;;;35.93;24.57;;;4.80;76.70;;;;;;6212028;23;20160;-88
2022/03/22 02:45:32;;;;;;;31.20;24.00;;;4.80;76.20;;;;;;6213487;23;20443;-88
2022/03/22 02:47:59;;;;;;;30.10;21.77;;;4.80;76.30;;;;;;6212703;23;20430;-88
2022/03/22 02:50:26;;;;;;;31.43;22.90;;;4.80;76.70;;;;;;6213645;23;20393;-88
2022/03/22 02:52:53;;;;;;;23.83;19.60;;;4.70;77.10;;;;;;6212544;23;20431;-89
2022/03/22 02:55:21;;;;;;;26.90;21.87;;;4.70;77.30;;;;;;6211350;23;20390;-87
2022/03/22 02:57:48;;;;;;;26.07;21.17;;;4.60;77.50;;;;;;6211296;23;20472;-89
2022/03/22 03:00:16;;;;;;;27.53;23.23;;;4.60;77.90;;;;;;6213913;23;20397;-89
2022/03/22 03:02:45;;;;;;;25.40;20.10;;;4.60;78.20;;;;;;6214504;23;20379;-89
2022/03/22 03:05:12;;;;;;;28.80;21.38;;;4.60;78.10;;;;;;6202618;23;20408;-88
2022/03/22 03:07:39;;;;;;;27.53;20.53;;;4.60;77.80;;;;;;6195498;23;20215;-88
2022/03/22 03:10:07;;;;;;;31.13;21.33;;;4.60;77.60;;;;;;6192429;23;20415;-88
2022/03/22 03:12:34;;;;;;;28.03;20.50;;;4.50;77.60;;;;;;6188739;23;20467;-88
2022/03/22 03:15:01;;;;;;;27.77;20.90;;;4.50;77.60;;;;;;6189563;23;20415;-88
2022/03/22 03:17:30;;;;;;;30.47;21.83;;;4.50;78.10;;;;;;6188293;23;20427;-88
2022/03/22 03:19:57;;;;;;;27.00;19.63;;;4.40;78.40;;;;;;6189092;23;20445;-88
2022/03/22 03:22:23;;;;;;;24.10;19.97;;;4.50;78.20;;;;;;6187922;23;20411;-88
2022/03/22 03:24:50;;;;;;;26.03;20.27;;;4.40;77.60;;;;;;6202197;23;20417;-88
2022/03/22 03:27:18;;;;;;;25.23;20.37;;;4.30;77.90;;;;;;6205314;23;20521;-89
2022/03/22 03:29:45;;;;;;;28.40;21.70;;;4.30;78.30;;;;;;6190316;23;20418;-88
2022/03/22 03:32:11;;;;;;;27.23;20.13;;;4.30;78.50;;;;;;6189462;23;20395;-88
2022/03/22 03:34:39;;;;;;;26.80;22.40;;;4.30;78.70;;;;;;6189312;23;20179;-88
2022/03/22 03:37:07;;;;;;;28.67;20.23;;;4.30;78.80;;;;;;6189407;23;20660;-88
2022/03/22 03:39:37;;;;;;;27.33;21.10;;;4.20;78.90;;;;;;6205879;23;20200;-88
2022/03/22 03:42:04;;;;;;;25.40;20.93;;;4.20;79.30;;;;;;6207523;23;20187;-88
2022/03/22 03:47:19;;;;;;;25.85;21.17;;;4.40;80.00;;;;;;6186106;23;20492;-88
2022/03/22 03:49:48;;;;;;;26.90;20.73;;;4.30;79.80;;;;;;6186877;23;20580;-88
2022/03/22 03:52:17;;;;;;;27.10;22.00;;;4.20;80.10;;;;;;6188793;23;20412;-88
2022/03/22 03:54:45;;;;;;;28.43;20.10;;;4.30;79.90;;;;;;6186347;23;20414;-88
2022/03/22 03:57:13;;;;;;;27.97;20.77;;;4.30;80.00;;;;;;6185192;23;20420;-88
2022/03/22 03:59:40;;;;;;;25.38;22.63;;;4.20;79.40;;;;;;6185328;23;20415;-88
2022/03/22 04:02:08;;;;;;;26.27;19.50;;;4.20;80.00;;;;;;6185783;23;20183;-88
2022/03/22 04:04:35;;;;;;;25.03;20.80;;;4.20;80.30;;;;;;6185472;23;20413;-88
2022/03/22 04:07:04;;;;;;;29.63;20.53;;;4.10;80.80;;;;;;6185559;23;20786;-87
2022/03/22 04:09:31;;;;;;;26.10;21.53;;;4.20;80.50;;;;;;6200593;23;20456;-87
2022/03/22 04:11:57;;;;;;;26.63;20.80;;;4.10;81.40;;;;;;6192852;23;20397;-87
2022/03/22 04:14:24;;;;;;;23.83;20.33;;;4.20;80.90;;;;;;6194676;23;20395;-87
2022/03/22 04:16:51;;;;;;;26.30;22.33;;;4.10;80.90;;;;;;6214073;23;20491;-88
2022/03/22 04:19:18;;;;;;;26.13;20.80;;;4.10;81.00;;;;;;6212457;23;20435;-87
2022/03/22 04:21:46;;;;;;;26.92;21.60;;;4.00;82.10;;;;;;6209669;23;20231;-88
2022/03/22 04:24:14;;;;;;;25.08;20.85;;;4.10;81.50;;;;;;6203215;23;20198;-88
2022/03/22 04:26:43;;;;;;;25.30;20.35;;;4.10;80.70;;;;;;6197192;23;20210;-88
2022/03/22 04:34:43;;;;;;;26.42;20.40;;;3.90;81.20;;;;;;6205286;23;20862;-88
2022/03/22 04:37:12;;;;;;;23.00;18.90;;;4.00;81.80;;;;;;6196161;23;20198;-87
2022/03/22 04:39:41;;;;;;;29.17;20.90;;;3.80;82.10;;;;;;6197125;23;20180;-88
2022/03/22 04:42:16;;;;;;;27.50;19.83;;;3.80;82.60;;;;;;6210513;23;20391;-87
2022/03/22 04:44:43;;;;;;;24.90;19.50;;;3.70;83.00;;;;;;6209054;23;20387;-87
2022/03/22 04:47:10;;;;;;;30.80;22.38;;;3.70;83.30;;;;;;6195169;23;20204;-87
2022/03/22 04:49:37;;;;;;;27.27;20.08;;;3.70;83.60;;;;;;6192548;23;20184;-88
2022/03/22 04:57:34;;;;;;;22.20;19.77;;;3.60;83.70;;;;;;6187822;23;20258;-87
2022/03/22 05:00:01;;;;;;;26.87;20.57;;;3.60;84.10;;;;;;6185738;23;20181;-87
2022/03/22 05:02:28;;;;;;;25.83;20.10;;;3.60;84.20;;;;;;6185804;23;20416;-87
2022/03/22 05:04:54;;;;;;;26.17;21.25;;;3.50;84.00;;;;;;6185705;23;20437;-87
2022/03/22 05:07:21;;;;;;;25.40;20.42;;;3.50;84.30;;;;;;6187262;23;20212;-87
2022/03/22 05:09:48;;;;;;;27.27;20.27;;;3.40;84.80;;;;;;6186396;23;20626;-88
2022/03/22 05:12:16;;;;;;;30.75;21.58;;;3.50;85.20;;;;;;6186663;23;20643;-88
2022/03/22 05:14:43;;;;;;;26.33;20.30;;;3.40;85.00;;;;;;6187243;23;20178;-87
2022/03/22 05:17:11;;;;;;;29.75;22.02;;;3.50;85.20;;;;;;6201468;23;20222;-89
2022/03/22 05:19:38;;;;;;;25.25;19.42;;;3.60;84.60;;;;;;6208842;23;20187;-88
2022/03/22 05:22:05;;;;;;;29.10;21.77;;;3.60;84.40;;;;;;6205222;23;20556;-88
2022/03/22 05:24:33;;;;;;;28.92;22.20;;;3.60;84.40;;;;;;6188864;23;20192;-87
2022/03/22 05:26:59;;;;;;;29.85;21.77;;;3.50;84.70;;;;;;6187891;23;20231;-87
2022/03/22 05:29:27;;;;;;;26.90;21.50;;;3.50;85.20;;;;;;6191940;23;20186;-88
2022/03/22 05:31:54;;;;;;;26.77;21.20;;;3.50;85.50;;;;;;6205893;23;20183;-88
2022/03/22 05:34:21;;;;;;;28.60;20.50;;;3.60;85.30;;;;;;6201735;23;20204;-89
2022/03/22 05:36:48;;;;;;;36.90;25.73;;;3.60;85.20;;;;;;6211994;23;20444;-89
2022/03/22 05:39:15;;;;;;;27.33;20.38;;;3.60;85.10;;;;;;6199175;23;20898;-89
2022/03/22 05:41:42;;;;;;;28.77;23.00;;;3.60;85.50;;;;;;6188805;23;20179;-89
2022/03/22 05:44:13;;;;;;;31.15;20.63;;;3.60;85.30;;;;;;6188435;23;20406;-89
2022/03/22 05:46:41;;;;;;;35.95;23.95;;;3.50;84.90;;;;;;6191473;23;20243;-87
2022/03/22 05:49:09;;;;;;;27.63;22.10;;;3.60;85.40;;;;;;6191477;23;20167;-85
2022/03/22 05:51:36;;;;;;;31.27;21.60;;;3.70;84.20;;;;;;6197038;23;20183;-84
2022/03/22 05:54:04;;;;;;;38.15;22.08;;;3.70;83.80;;;;;;6198246;23;20509;-85
2022/03/22 05:56:30;;;;;;;28.33;22.00;;;3.70;83.70;;;;;;6191974;23;20553;-82
2022/03/22 05:58:58;;;;;;;27.15;21.60;;;3.80;84.00;;;;;;6186620;23;20175;-83
2022/03/22 06:01:25;;;;;;;28.55;22.42;;;3.80;83.80;;;;;;6185072;23;20179;-83
2022/03/22 06:03:54;;;;;;;27.53;20.10;;;3.80;83.80;;;;;;6186202;23;20176;-82
2022/03/22 06:06:21;;;;;;;29.67;20.92;;;3.90;83.70;;;;;;6196464;23;20413;-83
2022/03/22 06:08:50;;;;;;;26.80;21.90;;;3.90;83.60;;;;;;6192063;23;20183;-84
2022/03/22 06:11:18;;;;;;;33.67;21.95;;;4.00;83.10;;;;;;6185124;23;20411;-84
2022/03/22 06:13:44;;;;;;;35.93;20.83;;;4.10;82.20;;;;;;6185367;23;20235;-83
2022/03/22 06:16:11;;;;;;;30.13;22.00;;;4.10;81.80;;;;;;6186493;23;20742;-83
2022/03/22 06:18:38;;;;;;;34.47;23.20;;;4.20;81.80;;;;;;6191965;23;20262;-83
2022/03/22 06:21:06;;;;;;;29.48;21.65;;;4.20;81.20;;;;;;6188999;23;20497;-82
2022/03/22 06:23:33;;;;;;;26.53;21.40;;;4.20;81.10;;;;;;6190135;23;20176;-83
2022/03/22 06:26:01;;;;;;;30.87;21.17;;;4.30;80.80;;;;;;6190312;23;20405;-83
2022/03/22 06:28:27;;;;;;;32.53;21.67;;;4.30;80.50;;;;;;6190101;23;20449;-83
2022/03/22 06:30:54;;;;;;;26.65;22.65;;;4.30;81.90;;;;;;6188242;23;20401;-83
2022/03/22 06:33:22;;;;;;;34.50;26.27;;;4.30;82.30;;;;;;6190158;23;20209;-83
2022/03/22 06:35:49;;;;;;;31.47;22.00;;;4.40;82.60;;;;;;6192181;23;20978;-84
2022/03/22 06:38:18;;;;;;;31.20;22.80;;;4.40;82.40;;;;;;6192971;23;20423;-83
2022/03/22 06:40:45;;;;;;;30.23;23.98;;;4.50;82.60;;;;;;6193481;23;20433;-83
2022/03/22 06:43:15;;;;;;;32.70;23.07;;;4.50;82.60;;;;;;6192232;23;20179;-83
2022/03/22 06:45:42;;;;;;;32.30;23.63;;;4.60;82.70;;;;;;6193589;23;20404;-82
2022/03/22 06:48:09;;;;;;;35.10;24.90;;;4.60;82.60;;;;;;6198552;23;20474;-81
2022/03/22 06:50:36;;;;;;;36.07;23.73;;;4.70;82.50;;;;;;6201901;23;20441;-82
2022/03/22 06:53:04;;;;;;;28.57;21.50;;;4.70;81.60;;;;;;6194926;23;20416;-83
2022/03/22 06:55:34;;;;;;;30.03;22.80;;;4.70;81.20;;;;;;6193385;23;20411;-83
2022/03/22 06:58:01;;;;;;;27.97;23.50;;;4.70;80.90;;;;;;6193359;23;20427;-83
2022/03/22 07:00:31;;;;;;;28.40;21.17;;;4.90;80.60;;;;;;6192944;23;20410;-82
2022/03/22 07:02:58;;;;;;;28.83;23.10;;;4.90;79.20;;;;;;6192610;23;20775;-83
2022/03/22 07:05:26;;;;;;;24.90;20.17;;;5.00;78.60;;;;;;6191064;23;20410;-83
2022/03/22 07:07:53;;;;;;;25.43;20.67;;;5.00;77.50;;;;;;6193047;23;20475;-83
2022/03/22 07:10:20;;;;;;;29.33;21.53;;;5.20;76.90;;;;;;6193264;23;20404;-83
2022/03/22 07:12:51;;;;;;;35.20;23.27;;;5.30;76.40;;;;;;6189953;23;20399;-84
2022/03/22 07:15:18;;;;;;;26.80;20.53;;;5.40;75.40;;;;;;6192530;23;20408;-81
2022/03/22 07:17:45;;;;;;;28.90;21.07;;;5.40;75.20;;;;;;6195449;23;20451;-79
2022/03/22 07:20:13;;;;;;;28.83;20.70;;;5.50;75.30;;;;;;6195431;23;20411;-81
2022/03/22 07:22:41;;;;;;;31.30;20.53;;;5.70;74.60;;;;;;6190356;23;20405;-82
2022/03/22 07:25:08;;;;;;;21.50;18.37;;;5.90;74.00;;;;;;6193532;23;20411;-83
2022/03/22 07:27:35;;;;;;;24.07;19.03;;;6.10;73.30;;;;;;6206356;23;20429;-81
2022/03/22 07:30:04;;;;;;;25.20;20.70;;;6.10;72.40;;;;;;6197591;23;20409;-83
2022/03/22 07:32:30;;;;;;;26.40;20.23;;;6.30;72.10;;;;;;6196251;23;20421;-83
2022/03/22 07:34:59;;;;;;;28.13;19.93;;;6.30;71.70;;;;;;6192585;23;20405;-83
2022/03/22 07:37:26;;;;;;;27.47;20.73;;;6.40;72.00;;;;;;6191329;23;20522;-83
2022/03/22 07:39:53;;;;;;;30.40;19.60;;;7.10;71.40;;;;;;6191580;23;20415;-82
2022/03/22 07:42:19;;;;;;;30.57;22.87;;;8.20;69.10;;;;;;6190614;23;20788;-83
2022/03/22 07:44:46;;;;;;;28.73;21.93;;;9.10;65.60;;;;;;6191336;23;20402;-82
2022/03/22 07:47:14;;;;;;;27.37;23.03;;;9.40;62.10;;;;;;6193231;23;20472;-80
2022/03/22 07:55:10;;;;;;;27.77;21.83;;;10.30;58.80;;;;;;6190654;23;20417;-80
2022/03/22 07:57:37;;;;;;;26.03;22.90;;;10.60;57.60;;;;;;6190040;23;20565;-82
2022/03/22 08:00:05;;;;;;;24.70;22.17;;;11.00;56.80;;;;;;6191336;23;20430;-83
2022/03/22 08:02:36;;;;;;;24.60;21.37;;;11.40;55.60;;;;;;6192834;23;20745;-82
2022/03/22 08:05:04;;;;;;;28.17;22.30;;;11.70;54.20;;;;;;6193026;23;20398;-82
2022/03/22 08:07:31;;;;;;;29.47;21.73;;;11.40;53.70;;;;;;6197553;23;20470;-82
2022/03/22 08:09:58;;;;;;;26.73;20.40;;;11.20;54.80;;;;;;6191800;23;20440;-82
2022/03/22 08:12:25;;;;;;;23.40;20.33;;;11.40;54.60;;;;;;6191964;23;20410;-82
2022/03/22 08:14:51;;;;;;;20.77;18.33;;;11.60;54.00;;;;;;6194682;23;20413;-82
2022/03/22 08:17:18;;;;;;;24.27;21.73;;;12.20;53.40;;;;;;6200291;23;20904;-82
2022/03/22 08:19:46;;;;;;;23.90;19.97;;;12.70;51.80;;;;;;6197526;23;20464;-83
2022/03/22 08:22:12;;;;;;;21.90;19.20;;;12.90;51.30;;;;;;6198590;23;20407;-81
2022/03/22 08:24:39;;;;;;;21.90;18.63;;;12.70;50.10;;;;;;6193762;23;20402;-82
2022/03/22 08:27:07;;;;;;;22.10;19.73;;;12.90;49.80;;;;;;6192800;23;20488;-82
2022/03/22 08:29:35;;;;;;;25.40;20.90;;;13.10;49.70;;;;;;6191874;23;20500;-82
2022/03/22 08:32:01;;;;;;;22.23;19.07;;;13.20;49.60;;;;;;6192272;23;20414;-82
2022/03/22 08:34:28;;;;;;;22.20;19.90;;;13.60;49.40;;;;;;6193229;23;20452;-82
2022/03/22 08:36:56;;;;;;;23.40;21.00;;;14.30;48.00;;;;;;6190996;23;20456;-82
2022/03/22 08:39:23;;;;;;;23.80;20.83;;;15.10;47.20;;;;;;6191751;23;20411;-82
2022/03/22 08:41:49;;;;;;;25.10;22.17;;;15.10;46.20;;;;;;6194179;23;20462;-82
2022/03/22 08:44:16;;;;;;;25.03;22.53;;;15.20;46.20;;;;;;6189706;23;20431;-82
2022/03/22 08:46:43;;;;;;;24.37;21.70;;;15.50;45.80;;;;;;6188612;23;20433;-82
2022/03/22 08:49:09;;;;;;;25.13;22.63;;;16.20;45.70;;;;;;6194701;23;20390;-83
2022/03/22 08:51:36;;;;;;;27.80;21.80;;;16.70;43.90;;;;;;6192656;23;20394;-83
2022/03/22 08:54:06;;;;;;;23.60;21.30;;;16.70;42.80;;;;;;6194786;23;20928;-83
2022/03/22 08:56:32;;;;;;;25.80;21.67;;;16.90;42.70;;;;;;6194954;23;20425;-83
2022/03/22 08:59:00;;;;;;;22.23;19.93;;;17.40;42.30;;;;;;6194204;23;20747;-83
2022/03/22 09:01:27;;;;;;;22.90;20.70;;;17.10;40.90;;;;;;6191607;23;20414;-83
2022/03/22 09:06:37;;;;;;;22.97;20.57;;;17.40;39.50;;;;;;6199645;23;20467;-84
2022/03/22 09:09:06;;;;;;;23.27;20.87;;;17.40;40.50;;;;;;6193197;23;20417;-83
2022/03/22 09:11:34;;;;;;;22.53;20.30;;;18.10;41.00;;;;;;6207787;23;20406;-84
2022/03/22 09:14:00;;;;;;;22.53;20.13;;;18.70;40.20;;;;;;6198325;23;20409;-84
2022/03/22 09:16:28;;;;;;;21.83;19.60;;;19.10;39.30;;;;;;6197164;23;20437;-83
2022/03/22 09:18:55;;;;;;;24.10;21.90;;;19.60;38.40;;;;;;6186632;23;20445;-84
2022/03/22 09:21:22;;;;;;;23.00;20.90;;;20.30;37.90;;;;;;6186337;23;20409;-84
2022/03/22 09:23:49;;;;;;;24.80;22.40;;;21.10;36.70;;;;;;6187404;23;20456;-84
2022/03/22 09:26:17;;;;;;;23.53;21.33;;;21.40;36.70;;;;;;6187221;23;20523;-84
2022/03/22 09:28:44;;;;;;;27.00;24.50;;;22.00;36.80;;;;;;6185754;23;20456;-83
2022/03/22 09:31:10;;;;;;;27.23;24.40;;;23.00;35.20;;;;;;6190243;23;20393;-84
2022/03/22 09:33:38;;;;;;;26.03;23.50;;;23.60;35.20;;;;;;6211951;23;20379;-83
2022/03/22 09:36:06;;;;;;;29.97;26.73;;;23.60;34.20;;;;;;6201886;23;20498;-83
2022/03/22 09:38:33;;;;;;;28.47;25.50;;;24.40;33.60;;;;;;6189609;23;20452;-84
2022/03/22 09:41:00;;;;;;;34.53;31.13;;;25.80;33.00;;;;;;6188434;23;20458;-82
2022/03/22 09:43:29;;;;;;;30.10;27.30;;;25.70;30.80;;;;;;6187149;23;20927;-84
2022/03/22 09:45:57;;;;;;;30.80;27.90;;;25.40;31.10;;;;;;6188177;23;20408;-84
2022/03/22 09:48:25;;;;;;;28.37;25.63;;;24.20;31.90;;;;;;6188247;23;20429;-84
2022/03/22 09:53:37;;;;;;;27.20;24.70;;;25.50;30.80;;;;;;6189183;23;20405;-83
2022/03/22 09:56:04;;;;;;;26.57;24.17;;;25.10;30.00;;;;;;6201411;23;20408;-85
2022/03/22 09:58:32;;;;;;;25.10;22.60;;;23.50;30.10;;;;;;6202615;23;20751;-86
2022/03/22 10:00:59;;;;;;;26.00;23.63;;;24.20;31.60;;;;;;6206280;23;20505;-85
2022/03/22 10:03:26;;;;;;;25.30;22.80;;;24.30;31.70;;;;;;6208796;23;20521;-85
2022/03/22 10:06:01;;;;;;;24.00;21.80;;;24.90;30.60;;;;;;6201151;23;20470;-85
2022/03/22 10:08:28;;;;;;;25.83;23.33;;;25.50;30.70;;;;;;6195890;23;20798;-81
2022/03/22 10:11:01;;;;;;;24.57;22.37;;;25.40;30.20;;;;;;6203729;23;20439;-81
2022/03/22 10:13:28;;;;;;;26.10;23.60;;;24.80;30.90;;;;;;6204156;23;20394;-84
2022/03/22 10:16:03;;;;;;;25.87;23.63;;;25.80;30.00;;;;;;6195778;23;20413;-84
2022/03/22 10:18:30;;;;;;;26.93;24.03;;;25.40;29.40;;;;;;6205022;23;20596;-85
2022/03/22 10:21:01;;;;;;;25.23;23.07;;;25.90;30.00;;;;;;6191725;23;20382;-82
2022/03/22 10:23:29;;;;;;;26.23;23.63;;;27.60;29.50;;;;;;6192634;23;20460;-85
2022/03/22 10:26:04;;;;;;;26.13;23.83;;;27.20;27.80;;;;;;6193168;23;20406;-83
2022/03/22 10:28:31;;;;;;;25.50;23.30;;;27.80;27.20;;;;;;6189325;23;20441;-82
2022/03/22 10:30:58;;;;;;;23.97;21.73;;;28.00;27.20;;;;;;6188140;23;20417;-85
2022/03/22 10:33:27;;;;;;;22.67;20.53;;;28.50;26.80;;;;;;6187661;23;20413;-85
2022/03/22 10:35:53;;;;;;;24.23;21.57;;;28.70;26.60;;;;;;6187911;23;20746;-85
2022/03/22 10:38:22;;;;;;;23.93;21.77;;;28.80;26.30;;;;;;6199228;23;20452;-85
2022/03/22 10:40:49;;;;;;;22.00;20.10;;;30.00;25.30;;;;;;6200878;23;20430;-85
2022/03/22 10:43:18;;;;;;;24.10;21.93;;;29.30;25.00;;;;;;6200370;23;20413;-85
2022/03/22 10:45:46;;;;;;;22.90;20.77;;;28.70;25.50;;;;;;6196478;23;20776;-85
2022/03/22 10:48:16;;;;;;;23.90;21.67;;;29.40;25.10;;;;;;6206551;23;20422;-82
2022/03/22 10:50:46;;;;;;;22.10;20.30;;;29.80;24.30;;;;;;6203093;23;20443;-84
2022/03/22 10:53:15;;;;;;;21.10;19.30;;;29.10;24.60;;;;;;6191342;23;20409;-84
2022/03/22 10:55:44;;;;;;;21.80;20.03;;;30.10;24.30;;;;;;6188805;23;20434;-85
2022/03/22 10:58:13;;;;;;;21.70;19.97;;;31.40;23.90;;;;;;6203314;23;20786;-83
2022/03/22 11:00:43;;;;;;;21.93;20.00;;;31.40;23.20;;;;;;6200410;23;20438;-84
2022/03/22 11:03:11;;;;;;;22.57;20.77;;;32.30;22.50;;;;;;6200430;23;20401;-82
2022/03/22 11:05:40;;;;;;;18.73;17.10;;;31.50;22.90;;;;;;6207438;23;20811;-83
2022/03/22 11:08:08;;;;;;;21.33;19.63;;;31.50;21.90;;;;;;6206282;23;20417;-85
2022/03/22 11:10:35;;;;;;;20.40;18.70;;;31.60;22.00;;;;;;6189030;23;20410;-85
2022/03/22 11:13:02;;;;;;;22.40;20.13;;;31.70;21.60;;;;;;6187332;23;20416;-84
2022/03/22 11:15:36;;;;;;;22.43;20.40;;;31.30;23.00;;;;;;6191471;23;20413;-85
2022/03/22 11:18:05;;;;;;;23.57;21.67;;;31.60;22.70;;;;;;6188017;23;20500;-85
2022/03/22 11:20:32;;;;;;;53.47;24.30;;;32.40;22.00;;;;;;6189314;23;20439;-86
2022/03/22 11:23:00;;;;;;;22.10;20.17;;;32.40;22.30;;;;;;6194703;23;20406;-84
2022/03/22 11:25:31;;;;;;;21.90;19.67;;;32.50;22.00;;;;;;6193862;23;20414;-85
2022/03/22 11:28:00;;;;;;;22.50;20.70;;;33.00;22.10;;;;;;6193251;23;20429;-84
2022/03/22 11:30:29;;;;;;;22.27;20.47;;;33.40;21.40;;;;;;6212927;23;20404;-83
2022/03/22 11:35:49;;;;;;;25.40;23.40;;;33.90;20.70;;;;;;6193572;23;20459;-83
2022/03/22 11:38:41;;;;;;;24.20;22.00;;;34.40;20.80;;;;;;6194731;23;20479;-84
2022/03/22 11:44:17;;;;;;;22.27;20.47;;;34.10;21.50;;;;;;6193064;23;20393;-83
2022/03/22 11:49:21;;;;;;;26.63;24.20;;;33.80;21.30;;;;;;6217441;23;20757;-86
2022/03/22 11:51:50;;;;;;;29.60;26.80;;;33.60;21.60;;;;;;6219230;23;20411;-87
2022/03/22 11:54:18;;;;;;;29.00;26.53;;;33.30;21.50;;;;;;6217929;23;20393;-87
2022/03/22 11:56:50;;;;;;;23.70;21.70;;;32.80;22.00;;;;;;6217949;23;20389;-86
2022/03/22 11:59:18;;;;;;;23.70;21.73;;;33.10;22.50;;;;;;6223760;23;20733;-87
2022/03/22 12:01:57;;;;;;;23.83;21.93;;;33.60;21.90;;;;;;6217805;23;20436;-87
2022/03/22 12:04:37;;;;;;;20.83;19.23;;;33.90;21.40;;;;;;6217812;23;20389;-87
2022/03/22 12:07:06;;;;;;;23.33;21.50;;;34.20;21.10;;;;;;6219209;23;20415;-88
2022/03/22 12:09:33;;;;;;;24.30;22.27;;;34.10;21.20;;;;;;6217531;23;20506;-86
2022/03/22 12:12:02;;;;;;;23.83;21.93;;;34.40;20.70;;;;;;6218926;23;20926;-88
2022/03/22 12:14:30;;;;;;;25.03;23.10;;;33.50;20.80;;;;;;6219356;23;20511;-87
2022/03/22 12:17:00;;;;;;;23.67;21.67;;;31.50;22.30;;;;;;6217497;23;20419;-87
2022/03/22 12:19:28;;;;;;;23.17;21.33;;;32.00;22.10;;;;;;6218265;23;20382;-88
2022/03/22 12:21:55;;;;;;;22.70;20.90;;;32.70;21.90;;;;;;6220945;23;20432;-88
2022/03/22 12:24:23;;;;;;;22.13;20.33;;;33.40;21.40;;;;;;6221988;23;20412;-87
2022/03/22 12:26:50;;;;;;;24.13;22.13;;;34.20;21.10;;;;;;6235176;23;20399;-86
2022/03/22 12:29:18;;;;;;;24.60;22.47;;;33.90;20.80;;;;;;6240804;23;20441;-87
2022/03/22 12:31:49;;;;;;;23.03;21.17;;;34.20;20.90;;;;;;6240664;23;20385;-86
2022/03/22 12:34:17;;;;;;;26.53;24.03;;;33.80;20.40;;;;;;6232272;23;20401;-84
2022/03/22 12:36:44;;;;;;;22.73;20.80;;;33.70;20.70;;;;;;6219161;23;20473;-85
2022/03/22 12:39:11;;;;;;;25.17;23.13;;;33.90;21.20;;;;;;6219037;23;20445;-84
2022/03/22 12:41:39;;;;;;;24.10;22.10;;;33.70;20.40;;;;;;6232952;23;20440;-83
2022/03/22 12:44:06;;;;;;;23.10;21.07;;;33.90;21.50;;;;;;6234428;23;20557;-84
2022/03/22 12:46:36;;;;;;;22.73;20.70;;;33.40;20.90;;;;;;6222208;23;20408;-85
2022/03/22 12:49:05;;;;;;;23.20;21.33;;;34.10;20.80;;;;;;6218517;23;20536;-85
2022/03/22 12:51:32;;;;;;;22.70;20.67;;;33.90;20.40;;;;;;6216682;23;20471;-85
2022/03/22 12:53:59;;;;;;;22.80;21.00;;;34.50;20.40;;;;;;6216875;23;20401;-85
2022/03/22 12:56:25;;;;;;;116.63;31.33;;;33.00;20.30;;;;;;6216581;23;20440;-84
2022/03/22 12:58:56;;;;;;;24.20;22.10;;;32.40;21.10;;;;;;6217479;23;20426;-85
2022/03/22 13:01:22;;;;;;;29.97;22.60;;;32.40;20.90;;;;;;6219450;23;20794;-85
2022/03/22 13:03:51;;;;;;;23.70;21.30;;;32.60;21.20;;;;;;6220729;23;20393;-86
2022/03/22 13:06:20;;;;;;;25.67;23.57;;;33.40;20.70;;;;;;6221941;23;20464;-86
2022/03/22 13:11:33;;;;;;;23.70;21.70;;;33.10;21.00;;;;;;6240104;23;20484;-86
2022/03/22 13:16:52;;;;;;;37.93;22.23;;;33.40;21.30;;;;;;6227273;23;20427;-85
2022/03/22 13:19:20;;;;;;;23.27;21.03;;;32.80;21.00;;;;;;6224049;23;20412;-85
2022/03/22 13:21:46;;;;;;;24.30;22.30;;;32.70;21.20;;;;;;6221858;23;20760;-84